createdAt,value
2023-01-06T00:01:35.515Z,69.45
2023-01-06T00:04:03.464Z,69.42
2023-01-06T00:06:31.466Z,69.33
2023-01-06T00:09:02.680Z,69.31
2023-01-06T00:11:30.804Z,69.37
2023-01-06T00:13:57.913Z,69.35
2023-01-06T00:16:25.259Z,69.50
2023-01-06T00:19:00.360Z,69.43
2023-01-06T00:21:28.586Z,69.46
2023-01-06T00:23:56.206Z,69.24
2023-01-06T00:26:23.733Z,69.30
2023-01-06T00:28:56.834Z,69.48
2023-01-06T00:31:24.236Z,69.56
2023-01-06T00:33:51.930Z,69.51
2023-01-06T00:36:18.984Z,69.50
2023-01-06T00:38:45.998Z,69.30
2023-01-06T00:41:33.202Z,69.31
2023-01-06T00:44:01.993Z,68.95
2023-01-06T00:46:31.726Z,68.88
2023-01-06T00:49:04.960Z,68.58
2023-01-06T00:51:35.704Z,68.81
2023-01-06T00:54:02.827Z,68.95
2023-01-06T00:56:30.020Z,68.93
2023-01-06T00:58:57.116Z,68.90
2023-01-06T01:01:24.307Z,68.93
2023-01-06T01:03:51.370Z,68.84
2023-01-06T01:06:18.488Z,68.58
2023-01-06T01:08:45.677Z,68.79
2023-01-06T01:11:36.379Z,68.77
2023-01-06T01:14:03.675Z,68.59
2023-01-06T01:16:31.593Z,68.62
2023-01-06T01:18:59.503Z,68.85
2023-01-06T01:21:26.546Z,69.09
2023-01-06T01:23:53.539Z,69.04
2023-01-06T01:26:20.667Z,69.13
2023-01-06T01:28:47.776Z,69.49
2023-01-06T01:31:16.256Z,69.35
2023-01-06T01:33:43.792Z,69.13
2023-01-06T01:36:15.131Z,69.24
2023-01-06T01:38:42.615Z,69.21
2023-01-06T01:41:17.951Z,69.21
2023-01-06T01:43:51.161Z,69.54
2023-01-06T01:46:28.537Z,69.27
2023-01-06T01:49:01.142Z,68.92
2023-01-06T01:51:39.478Z,68.91
2023-01-06T01:54:14.158Z,68.63
2023-01-06T01:56:46.242Z,68.57
2023-01-06T01:59:18.506Z,68.48
2023-01-06T02:01:47.244Z,68.16
2023-01-06T02:04:17.392Z,68.30
2023-01-06T02:06:46.280Z,68.57
2023-01-06T02:09:25.858Z,68.61
2023-01-06T02:11:52.978Z,68.81
2023-01-06T02:14:24.237Z,68.52
2023-01-06T02:17:20.966Z,68.76
2023-01-06T02:20:21.411Z,68.38
2023-01-06T02:23:15.129Z,68.17
2023-01-06T02:26:28.077Z,67.99
2023-01-06T02:29:24.926Z,67.52
2023-01-06T02:32:23.975Z,67.42
2023-01-06T02:35:30.408Z,67.42
2023-01-06T02:38:28.555Z,67.41
2023-01-06T02:41:38.231Z,67.11
2023-01-06T02:44:27.769Z,66.82
2023-01-06T02:46:54.657Z,66.46
2023-01-06T02:49:31.683Z,66.14
2023-01-06T02:52:09.969Z,66.32
2023-01-06T02:55:06.198Z,66.51
2023-01-06T02:57:57.356Z,66.24
2023-01-06T03:00:43.032Z,66.62
2023-01-06T03:03:21.010Z,66.43
2023-01-06T03:05:55.560Z,66.35
2023-01-06T03:08:28.481Z,65.95
2023-01-06T03:10:57.618Z,65.65
2023-01-06T03:13:47.145Z,65.39
2023-01-06T03:16:16.131Z,64.92
2023-01-06T03:18:45.416Z,64.91
2023-01-06T03:21:19.214Z,64.39
2023-01-06T03:23:46.964Z,64.55
2023-01-06T03:26:14.738Z,64.74
2023-01-06T03:28:41.870Z,64.87
2023-01-06T03:31:45.130Z,64.91
2023-01-06T03:34:41.683Z,65.10
2023-01-06T03:37:23.894Z,65.24
2023-01-06T03:40:26.083Z,65.54
2023-01-06T03:43:16.377Z,65.83
2023-01-06T03:46:17.064Z,65.82
2023-01-06T03:49:19.912Z,65.76
2023-01-06T03:51:54.841Z,66.46
2023-01-06T03:54:40.777Z,66.22
2023-01-06T03:57:16.968Z,66.56
2023-01-06T03:59:58.907Z,66.50
2023-01-06T04:02:27.974Z,67.07
2023-01-06T04:05:14.037Z,66.96
2023-01-06T04:07:43.362Z,67.45
2023-01-06T04:10:12.456Z,67.24
2023-01-06T04:12:40.268Z,67.34
2023-01-06T04:15:11.101Z,67.20
2023-01-06T04:17:42.889Z,66.87
2023-01-06T04:20:15.137Z,66.91
2023-01-06T04:22:42.683Z,66.37
2023-01-06T04:25:10.503Z,66.14
2023-01-06T04:27:37.545Z,66.32
2023-01-06T04:30:07.064Z,66.03
2023-01-06T04:32:34.251Z,65.85
2023-01-06T04:35:01.353Z,65.33
2023-01-06T04:37:28.369Z,65.08
2023-01-06T04:39:55.457Z,64.82
2023-01-06T04:42:22.478Z,65.15
2023-01-06T04:44:49.860Z,65.19
2023-01-06T04:47:16.998Z,65.34
2023-01-06T04:49:45.443Z,65.35
2023-01-06T04:52:12.457Z,65.30
2023-01-06T04:54:39.482Z,65.36
2023-01-06T04:57:06.520Z,65.45
2023-01-06T04:59:33.556Z,65.75
2023-01-06T05:02:00.646Z,65.81
2023-01-06T05:04:30.175Z,65.66
2023-01-06T05:07:01.141Z,65.80
2023-01-06T05:09:28.200Z,65.42
2023-01-06T05:11:55.231Z,65.79
2023-01-06T05:14:22.299Z,65.80
2023-01-06T05:16:49.272Z,65.77
2023-01-06T05:19:16.238Z,65.56
2023-01-06T05:21:43.242Z,65.64
2023-01-06T05:24:10.495Z,65.25
2023-01-06T05:26:37.507Z,65.25
2023-01-06T05:29:04.473Z,65.04
2023-01-06T05:31:31.527Z,65.38
2023-01-06T05:33:58.558Z,65.21
2023-01-06T05:36:25.638Z,65.19
2023-01-06T05:38:54.271Z,65.26
2023-01-06T05:41:21.573Z,65.56
2023-01-06T05:43:48.712Z,65.36
2023-01-06T05:46:15.909Z,65.71
2023-01-06T05:48:42.932Z,65.72
2023-01-06T05:51:15.226Z,65.41
2023-01-06T05:53:44.822Z,65.00
2023-01-06T05:56:16.729Z,65.41
2023-01-06T05:58:52.721Z,65.47
2023-01-06T06:01:28.917Z,65.81
2023-01-06T06:03:56.176Z,65.74
2023-01-06T06:06:25.873Z,65.86
2023-01-06T06:08:52.979Z,66.04
2023-01-06T06:11:22.271Z,66.09
2023-01-06T06:13:56.101Z,65.99
2023-01-06T06:16:26.446Z,65.84
2023-01-06T06:18:57.319Z,65.44
2023-01-06T06:21:28.983Z,65.31
2023-01-06T06:23:58.293Z,65.42
2023-01-06T06:26:26.526Z,65.60
2023-01-06T06:28:56.552Z,65.58
2023-01-06T06:31:29.537Z,65.89
2023-01-06T06:33:59.999Z,65.75
2023-01-06T06:36:27.469Z,65.90
2023-01-06T06:38:55.942Z,65.80
2023-01-06T06:41:25.597Z,65.60
2023-01-06T06:43:53.239Z,65.78
2023-01-06T06:46:21.376Z,65.75
2023-01-06T06:48:50.195Z,65.55
2023-01-06T06:51:21.003Z,65.94
2023-01-06T06:53:51.170Z,65.69
2023-01-06T06:56:21.467Z,65.41
2023-01-06T06:58:48.926Z,65.35
2023-01-06T07:01:19.003Z,65.84
2023-01-06T07:03:47.580Z,65.96
2023-01-06T07:06:19.975Z,66.14
2023-01-06T07:08:48.360Z,65.77
2023-01-06T07:11:15.708Z,65.90
2023-01-06T07:13:43.088Z,65.60
2023-01-06T07:16:10.980Z,65.91
2023-01-06T07:18:38.513Z,66.05
2023-01-06T07:21:06.417Z,66.23
2023-01-06T07:23:34.285Z,65.92
2023-01-06T07:26:02.352Z,65.29
2023-01-06T07:28:31.503Z,65.14
2023-01-06T07:30:59.072Z,65.08
2023-01-06T07:33:26.682Z,64.91
2023-01-06T07:35:55.978Z,65.25
2023-01-06T07:38:24.318Z,65.86
2023-01-06T07:40:51.916Z,66.10
2023-01-06T07:43:19.090Z,65.75
2023-01-06T07:45:49.361Z,65.81
2023-01-06T07:48:17.091Z,65.23
2023-01-06T07:50:44.463Z,65.55
2023-01-06T07:53:12.473Z,65.25
2023-01-06T07:55:39.528Z,65.07
2023-01-06T07:58:08.801Z,65.41
2023-01-06T08:00:36.573Z,65.40
2023-01-06T08:03:07.009Z,65.17
2023-01-06T08:05:42.030Z,64.35
2023-01-06T08:08:10.958Z,64.46
2023-01-06T08:10:42.987Z,64.54
2023-01-06T08:13:11.227Z,64.32
2023-01-06T08:15:40.212Z,64.37
2023-01-06T08:18:08.213Z,64.64
2023-01-06T08:20:35.433Z,64.89
2023-01-06T08:23:02.891Z,64.58
2023-01-06T08:25:29.974Z,64.92
2023-01-06T08:28:00.144Z,64.44
2023-01-06T08:30:27.879Z,63.91
2023-01-06T08:32:59.216Z,64.09
2023-01-06T08:35:26.745Z,64.41
2023-01-06T08:37:53.871Z,64.49
2023-01-06T08:40:21.123Z,64.48
2023-01-06T08:42:48.360Z,64.52
2023-01-06T08:45:15.532Z,64.29
2023-01-06T08:47:42.647Z,64.23
2023-01-06T08:50:09.751Z,64.09
2023-01-06T08:52:37.557Z,64.17
2023-01-06T08:55:05.164Z,63.70
2023-01-06T08:57:32.237Z,64.00
2023-01-06T08:59:59.407Z,63.56
2023-01-06T09:02:27.421Z,63.88
2023-01-06T09:04:54.700Z,63.76
2023-01-06T09:07:21.713Z,63.23
2023-01-06T09:09:48.841Z,62.87
2023-01-06T09:12:15.927Z,63.17
2023-01-06T09:14:42.949Z,63.14
2023-01-06T09:17:09.995Z,62.85
2023-01-06T09:19:36.974Z,62.92
2023-01-06T09:22:04.483Z,62.68
2023-01-06T09:24:31.531Z,62.44
2023-01-06T09:26:58.569Z,62.50
2023-01-06T09:29:25.593Z,62.05
2023-01-06T09:31:52.613Z,62.22
2023-01-06T09:34:19.648Z,62.31
2023-01-06T09:36:46.748Z,62.04
2023-01-06T09:39:13.758Z,62.12
2023-01-06T09:42:25.649Z,61.58
2023-01-06T09:45:06.448Z,61.52
2023-01-06T09:47:42.509Z,61.07
2023-01-06T09:50:45.794Z,60.83
2023-01-06T09:54:00.260Z,60.90
2023-01-06T09:56:27.610Z,60.55
2023-01-06T09:59:09.119Z,60.38
2023-01-06T10:01:46.078Z,60.54
2023-01-06T10:04:30.981Z,60.58
2023-01-06T10:07:19.937Z,60.71
2023-01-06T10:10:02.445Z,61.18
2023-01-06T10:13:03.835Z,60.70
2023-01-06T10:15:30.776Z,60.50
2023-01-06T10:18:21.845Z,60.13
2023-01-06T10:21:27.936Z,60.43
2023-01-06T10:24:01.942Z,60.33
2023-01-06T10:26:44.522Z,60.10
2023-01-06T10:29:20.969Z,60.54
2023-01-06T10:31:51.548Z,60.86
2023-01-06T10:34:24.619Z,61.00
2023-01-06T10:37:24.172Z,60.76
2023-01-06T10:40:14.324Z,61.20
2023-01-06T10:42:56.555Z,62.04
2023-01-06T10:45:46.400Z,69.14
2023-01-06T10:48:17.940Z,69.33
2023-01-06T10:50:45.121Z,71.26
2023-01-06T10:53:15.014Z,68.85
2023-01-06T10:55:55.066Z,64.43
2023-01-06T10:58:42.735Z,58.42
2023-01-06T11:01:23.673Z,63.41
2023-01-06T11:04:09.487Z,56.60
2023-01-06T11:06:43.742Z,57.20
2023-01-06T11:09:33.463Z,58.30
2023-01-06T11:12:10.687Z,58.57
2023-01-06T11:14:39.144Z,59.11
2023-01-06T11:17:16.083Z,59.01
2023-01-06T11:19:46.161Z,59.57
2023-01-06T11:22:39.764Z,59.92
2023-01-06T11:25:21.866Z,60.18
2023-01-06T11:28:24.458Z,60.46
2023-01-06T11:31:05.774Z,60.91
2023-01-06T11:33:36.691Z,61.02
2023-01-06T11:36:13.108Z,60.32
2023-01-06T11:38:49.867Z,60.80
2023-01-06T11:41:37.883Z,60.15
2023-01-06T11:44:36.772Z,59.59
2023-01-06T11:47:18.129Z,59.83
2023-01-06T11:49:55.959Z,59.79
2023-01-06T11:52:32.981Z,60.78
2023-01-06T11:55:07.828Z,60.08
2023-01-06T11:58:05.481Z,60.00
2023-01-06T12:01:00.025Z,60.20
2023-01-06T12:03:41.536Z,60.25
2023-01-06T12:06:37.977Z,60.54
2023-01-06T12:09:33.753Z,60.40
2023-01-06T12:12:07.737Z,60.60
2023-01-06T12:14:39.561Z,60.28
2023-01-06T12:17:18.134Z,60.56
2023-01-06T12:20:14.820Z,60.59
2023-01-06T12:23:12.445Z,60.89
2023-01-06T12:25:46.727Z,60.92
2023-01-06T12:28:19.319Z,61.20
2023-01-06T12:31:22.682Z,61.10
2023-01-06T12:34:24.717Z,61.14
2023-01-06T12:37:39.868Z,61.14
2023-01-06T12:40:30.467Z,61.21
2023-01-06T12:43:16.786Z,61.26
2023-01-06T12:45:59.519Z,62.89
2023-01-06T12:49:03.044Z,61.62
2023-01-06T12:51:48.411Z,61.67
2023-01-06T12:54:32.224Z,61.51
2023-01-06T12:57:23.737Z,61.25
2023-01-06T13:00:24.049Z,61.45
2023-01-06T13:03:35.832Z,61.53
2023-01-06T13:06:30.557Z,61.21
2023-01-06T13:09:18.550Z,61.81
2023-01-06T13:12:17.606Z,61.68
2023-01-06T13:15:03.805Z,61.96
2023-01-06T13:17:55.947Z,62.17
2023-01-06T13:20:49.808Z,62.14
2023-01-06T13:23:54.401Z,62.66
2023-01-06T13:27:14.530Z,62.45
2023-01-06T13:30:15.576Z,62.66
2023-01-06T13:33:17.113Z,62.85
2023-01-06T13:36:17.490Z,63.26
2023-01-06T13:39:12.653Z,99.27
2023-01-06T13:41:43.702Z,65.58
2023-01-06T13:44:20.594Z,65.21
2023-01-06T13:46:49.841Z,66.21
2023-01-06T13:49:17.039Z,66.12
2023-01-06T13:51:44.626Z,65.73
2023-01-06T13:55:05.404Z,66.89
2023-01-06T13:57:40.283Z,66.18
2023-01-06T14:00:07.182Z,66.40
2023-01-06T14:02:34.243Z,66.59
2023-01-06T14:05:22.494Z,65.79
2023-01-06T14:08:17.740Z,65.56
2023-01-06T14:10:46.742Z,65.20
2023-01-06T14:13:26.105Z,65.11
2023-01-06T14:16:14.038Z,65.26
2023-01-06T14:19:04.491Z,64.92
2023-01-06T14:21:31.847Z,64.71
2023-01-06T14:24:06.902Z,64.84
2023-01-06T14:27:01.341Z,65.03
2023-01-06T14:29:40.613Z,64.60
2023-01-06T14:32:11.734Z,64.25
2023-01-06T14:34:44.140Z,64.53
2023-01-06T14:37:17.144Z,64.70
2023-01-06T14:39:50.310Z,64.99
2023-01-06T14:42:38.864Z,65.22
2023-01-06T14:45:25.051Z,65.70
2023-01-06T14:47:56.561Z,65.70
2023-01-06T14:50:45.519Z,65.36
2023-01-06T14:53:35.923Z,65.69
2023-01-06T14:56:04.934Z,65.40
2023-01-06T14:58:36.901Z,65.79
2023-01-06T15:01:06.551Z,66.15
2023-01-06T15:03:34.921Z,66.12
2023-01-06T15:06:21.175Z,66.12
2023-01-06T15:08:48.850Z,66.06
2023-01-06T15:11:33.528Z,66.22
2023-01-06T15:14:00.555Z,66.42
2023-01-06T15:16:41.008Z,66.49
2023-01-06T15:19:15.832Z,66.39
2023-01-06T15:21:47.486Z,66.60
2023-01-06T15:24:23.501Z,66.68
2023-01-06T15:26:57.075Z,66.82
2023-01-06T15:29:26.739Z,66.74
2023-01-06T15:31:55.160Z,67.06
2023-01-06T15:34:34.967Z,66.10
2023-01-06T15:37:04.737Z,66.59
2023-01-06T15:39:33.941Z,67.29
2023-01-06T15:42:02.452Z,67.43
2023-01-06T15:44:32.317Z,67.95
2023-01-06T15:47:11.513Z,68.39
2023-01-06T15:49:49.077Z,68.22
2023-01-06T15:52:38.747Z,68.39
2023-01-06T15:55:18.170Z,69.63
2023-01-06T15:57:55.940Z,68.81
2023-01-06T16:00:27.252Z,68.76
2023-01-06T16:02:54.473Z,68.57
2023-01-06T16:05:36.374Z,68.88
2023-01-06T16:08:07.008Z,69.11
2023-01-06T16:10:38.846Z,69.36
2023-01-06T16:13:23.250Z,69.36
2023-01-06T16:15:55.516Z,69.53
2023-01-06T16:18:35.326Z,69.85
2023-01-06T16:21:24.905Z,70.20
2023-01-06T16:23:58.642Z,70.35
2023-01-06T16:26:32.833Z,70.75
2023-01-06T16:29:02.916Z,70.88
2023-01-06T16:31:36.325Z,71.34
2023-01-06T16:34:24.305Z,71.37
2023-01-06T16:36:56.451Z,71.72
2023-01-06T16:39:24.556Z,72.18
2023-01-06T16:42:00.757Z,72.79
2023-01-06T16:44:32.301Z,73.24
2023-01-06T16:47:00.669Z,73.66
2023-01-06T16:49:30.270Z,73.93
2023-01-06T16:51:57.411Z,74.32
2023-01-06T16:54:24.434Z,75.01
2023-01-06T16:56:52.454Z,76.11
2023-01-06T16:59:22.250Z,76.19
2023-01-06T17:01:49.524Z,76.70
2023-01-06T17:04:16.729Z,76.79
2023-01-06T17:06:45.834Z,77.00
2023-01-06T17:09:23.727Z,77.42
2023-01-06T17:11:52.971Z,77.85
2023-01-06T17:14:22.748Z,78.60
2023-01-06T17:16:53.446Z,81.06
2023-01-06T17:19:28.298Z,80.85
2023-01-06T17:22:26.355Z,81.47
2023-01-06T17:24:54.321Z,81.68
2023-01-06T17:27:30.017Z,84.72
2023-01-06T17:30:01.862Z,86.28
2023-01-06T17:32:35.107Z,85.56
2023-01-06T17:35:23.844Z,85.93
2023-01-06T17:37:50.853Z,85.94
2023-01-06T17:40:22.041Z,86.53
2023-01-06T17:43:00.919Z,86.33
2023-01-06T17:45:28.511Z,86.00
2023-01-06T17:47:56.793Z,85.66
2023-01-06T17:50:33.813Z,85.88
2023-01-06T17:53:35.163Z,86.52
2023-01-06T17:56:09.001Z,86.50
2023-01-06T17:58:44.084Z,86.80
2023-01-06T18:01:30.071Z,86.82
2023-01-06T18:04:00.068Z,87.00
2023-01-06T18:06:37.806Z,86.73
2023-01-06T18:09:09.872Z,87.37
2023-01-06T18:11:50.819Z,86.72
2023-01-06T18:14:25.200Z,87.09
2023-01-06T18:16:56.805Z,87.79
2023-01-06T18:19:32.776Z,87.95
2023-01-06T18:22:02.407Z,87.98
2023-01-06T18:24:39.161Z,88.70
2023-01-06T18:27:34.618Z,88.42
2023-01-06T18:30:15.188Z,88.79
2023-01-06T18:32:44.076Z,88.59
2023-01-06T18:35:28.675Z,88.28
2023-01-06T18:38:02.498Z,89.22
2023-01-06T18:40:31.575Z,89.66
2023-01-06T18:43:00.397Z,89.95
2023-01-06T18:45:36.244Z,90.23
2023-01-06T18:48:25.086Z,90.73
2023-01-06T18:50:53.880Z,90.83
2023-01-06T18:53:30.446Z,90.31
2023-01-06T18:56:03.922Z,89.88
2023-01-06T18:58:46.391Z,90.86
2023-01-06T19:01:37.113Z,91.44
2023-01-06T19:04:04.181Z,92.66
2023-01-06T19:07:12.155Z,92.70
2023-01-06T19:09:46.336Z,91.57
2023-01-06T19:12:33.545Z,90.82
2023-01-06T19:15:24.430Z,90.38
2023-01-06T19:17:52.173Z,89.78
2023-01-06T19:20:29.195Z,89.87
2023-01-06T19:22:57.171Z,90.04
2023-01-06T19:25:40.716Z,89.42
2023-01-06T19:28:31.301Z,89.09
2023-01-06T19:31:00.519Z,89.66
2023-01-06T19:34:03.165Z,90.29
2023-01-06T19:36:48.214Z,89.96
2023-01-06T19:39:28.565Z,89.79
2023-01-06T19:42:16.717Z,89.99
2023-01-06T19:44:44.389Z,90.14
2023-01-06T19:47:18.199Z,90.54
2023-01-06T19:49:52.726Z,90.43
2023-01-06T19:52:43.006Z,90.89
2023-01-06T19:55:22.548Z,91.99
2023-01-06T19:58:04.015Z,91.70
2023-01-06T20:00:38.213Z,91.76
2023-01-06T20:03:32.506Z,90.86
2023-01-06T20:05:59.870Z,90.88
2023-01-06T20:08:27.072Z,91.12
2023-01-06T20:10:55.134Z,91.05
2023-01-06T20:13:22.244Z,90.54
2023-01-06T20:15:49.313Z,90.71
2023-01-06T20:18:16.355Z,91.25
2023-01-06T20:20:43.378Z,90.06
2023-01-06T20:23:11.295Z,90.18
2023-01-06T20:25:38.309Z,90.59
2023-01-06T20:28:05.581Z,90.63
2023-01-06T20:30:32.596Z,90.49
2023-01-06T20:32:59.591Z,90.82
2023-01-06T20:35:26.651Z,91.33
2023-01-06T20:37:53.699Z,91.23
2023-01-06T20:40:21.327Z,91.02
2023-01-06T20:42:48.431Z,91.38
2023-01-06T20:45:15.516Z,92.10
2023-01-06T20:47:44.083Z,93.40
2023-01-06T20:50:13.862Z,92.23
2023-01-06T20:52:47.346Z,92.06
2023-01-06T20:55:16.650Z,91.88
2023-01-06T20:57:43.761Z,91.47
2023-01-06T21:00:12.988Z,91.29
2023-01-06T21:02:40.158Z,91.02
2023-01-06T21:05:08.032Z,91.50
2023-01-06T21:07:35.221Z,91.33
2023-01-06T21:10:04.202Z,91.34
2023-01-06T21:12:31.621Z,91.43
2023-01-06T21:14:58.591Z,91.78
2023-01-06T21:17:26.077Z,92.44
2023-01-06T21:19:53.122Z,93.35
2023-01-06T21:22:20.231Z,93.16
2023-01-06T21:24:47.211Z,93.55
2023-01-06T21:27:14.345Z,93.36
2023-01-06T21:29:41.663Z,93.39
2023-01-06T21:32:09.262Z,93.71
2023-01-06T21:34:36.299Z,94.21
2023-01-06T21:37:03.776Z,93.88
2023-01-06T21:39:30.995Z,93.44
2023-01-06T21:42:16.485Z,93.06
2023-01-06T21:44:43.517Z,92.37
2023-01-06T21:47:11.466Z,92.61
2023-01-06T21:49:42.017Z,92.58
2023-01-06T21:52:09.722Z,92.57
2023-01-06T21:54:36.807Z,92.49
2023-01-06T21:57:04.054Z,92.82
2023-01-06T21:59:31.709Z,92.80
2023-01-06T22:01:58.940Z,92.61
2023-01-06T22:04:26.091Z,92.18
2023-01-06T22:06:56.491Z,92.66
2023-01-06T22:09:24.359Z,93.07
2023-01-06T22:11:52.076Z,92.35
2023-01-06T22:14:19.534Z,91.75
2023-01-06T22:16:46.836Z,92.58
2023-01-06T22:19:15.702Z,92.31
2023-01-06T22:21:44.212Z,92.29
2023-01-06T22:24:13.700Z,92.43
2023-01-06T22:26:40.725Z,92.53
2023-01-06T22:29:08.332Z,92.74
2023-01-06T22:31:36.476Z,92.65
2023-01-06T22:34:03.942Z,92.04
2023-01-06T22:36:30.941Z,92.64
2023-01-06T22:38:57.977Z,92.97
2023-01-06T22:41:25.013Z,93.30
2023-01-06T22:43:52.052Z,93.39
2023-01-06T22:46:19.194Z,93.26
2023-01-06T22:48:46.470Z,93.07
2023-01-06T22:51:13.565Z,93.65
2023-01-06T22:53:40.594Z,94.39
2023-01-06T22:56:11.496Z,93.84
2023-01-06T22:58:40.945Z,94.42
2023-01-06T23:01:08.557Z,93.74
2023-01-06T23:03:36.750Z,93.93
2023-01-06T23:06:12.137Z,93.83
2023-01-06T23:08:50.966Z,94.44
2023-01-06T23:11:22.751Z,94.52
2023-01-06T23:13:55.521Z,94.18
2023-01-06T23:16:23.383Z,93.90
2023-01-06T23:18:50.605Z,94.07
2023-01-06T23:21:22.043Z,94.33
2023-01-06T23:23:50.348Z,93.76
2023-01-06T23:26:28.117Z,94.07
2023-01-06T23:28:57.029Z,94.74
2023-01-06T23:31:35.425Z,93.49
2023-01-06T23:34:17.615Z,93.54
2023-01-06T23:36:45.765Z,93.20
2023-01-06T23:39:16.915Z,93.19
2023-01-06T23:41:44.103Z,93.86
2023-01-06T23:44:16.681Z,94.76
2023-01-06T23:46:44.994Z,94.39
2023-01-06T23:49:15.767Z,93.52
2023-01-06T23:51:43.823Z,94.22
2023-01-06T23:54:12.212Z,94.73
2023-01-06T23:56:39.629Z,94.53
2023-01-06T23:59:10.104Z,94.99
